Time;durP1;ratioP1;P1;durP2;ratioP2;P2;SDS_P1;SDS_P2;PMS_P1;PMS_P2;Temp;Humidity;BMP_temperature;BMP_pressure;BME280_temperature;BME280_humidity;BME280_pressure;Samples;Min_cycle;Max_cycle;Signal;HPM_P1;HPM_P2
2021/05/20 00:01:33;;;;;;;11.03;6.17;;;10.10;99.90;;;;;;4164832;28;20196;-93
2021/05/20 00:03:34;;;;;;;11.30;6.17;;;10.00;99.90;;;;;;4148283;28;20165;-92
2021/05/20 00:05:35;;;;;;;11.50;6.80;;;10.00;99.90;;;;;;4164733;28;20179;-93
2021/05/20 00:07:37;;;;;;;12.00;6.63;;;10.00;99.90;;;;;;4164478;28;20309;-93
2021/05/20 00:09:37;;;;;;;12.20;6.77;;;9.90;99.90;;;;;;4181218;28;20175;-92
2021/05/20 00:11:38;;;;;;;14.57;7.00;;;10.00;99.90;;;;;;4180777;28;20222;-92
2021/05/20 00:13:39;;;;;;;10.07;6.80;;;10.00;99.90;;;;;;4148182;28;20173;-92
2021/05/20 00:15:40;;;;;;;11.53;6.87;;;10.00;99.90;;;;;;4164541;28;20172;-93
2021/05/20 00:17:41;;;;;;;12.90;6.93;;;10.00;99.90;;;;;;4148147;28;20169;-92
2021/05/20 00:19:42;;;;;;;10.70;6.87;;;10.00;99.90;;;;;;4164137;28;20176;-93
2021/05/20 00:21:43;;;;;;;9.37;6.90;;;10.00;99.90;;;;;;4148039;28;20341;-92
2021/05/20 00:23:44;;;;;;;9.17;6.50;;;10.00;99.90;;;;;;4148148;28;20274;-92
2021/05/20 00:25:45;;;;;;;9.17;6.33;;;10.00;99.90;;;;;;4148149;28;20200;-92
2021/05/20 00:27:45;;;;;;;10.13;6.83;;;9.80;99.90;;;;;;4148036;28;20165;-93
2021/05/20 00:29:49;;;;;;;13.83;7.33;;;9.80;99.90;;;;;;4180663;28;20186;-93
2021/05/20 00:31:49;;;;;;;9.40;6.83;;;9.70;99.90;;;;;;4164054;28;20215;-93
2021/05/20 00:33:50;;;;;;;9.10;6.30;;;9.70;99.90;;;;;;4180646;28;20608;-94
2021/05/20 00:35:58;;;;;;;16.30;7.90;;;9.60;99.90;;;;;;4147778;28;20619;-94
2021/05/20 00:37:59;;;;;;;16.07;7.90;;;9.60;99.90;;;;;;4147949;28;20160;-93
2021/05/20 00:40:00;;;;;;;16.07;8.33;;;9.60;99.90;;;;;;4147524;28;20180;-93
2021/05/20 00:42:10;;;;;;;16.30;9.47;;;9.60;99.90;;;;;;4147745;28;20197;-93
2021/05/20 00:44:11;;;;;;;15.20;9.57;;;9.60;99.90;;;;;;4147677;28;20169;-92
2021/05/20 00:46:14;;;;;;;16.50;9.77;;;9.60;99.90;;;;;;4180575;28;20230;-95
2021/05/20 00:48:14;;;;;;;13.87;9.07;;;9.60;99.90;;;;;;4147920;28;20308;-92
2021/05/20 00:50:15;;;;;;;17.27;10.37;;;9.60;99.90;;;;;;4180473;28;20762;-94
2021/05/20 00:52:16;;;;;;;18.97;11.57;;;9.70;99.90;;;;;;4163827;28;20196;-93
2021/05/20 00:54:17;;;;;;;17.67;12.83;;;9.70;99.90;;;;;;4180765;28;20172;-94
2021/05/20 00:56:20;;;;;;;22.10;12.57;;;9.70;99.90;;;;;;4147613;28;20177;-93
2021/05/20 00:58:21;;;;;;;17.07;12.40;;;9.80;99.90;;;;;;4147456;28;20169;-93
2021/05/20 01:00:25;;;;;;;19.13;13.33;;;9.80;99.90;;;;;;4180482;28;20582;-93
2021/05/20 01:02:29;;;;;;;21.00;12.67;;;9.70;99.90;;;;;;4163998;28;20194;-92
2021/05/20 01:04:29;;;;;;;19.17;12.90;;;9.80;99.90;;;;;;4163728;28;20179;-93
2021/05/20 01:06:30;;;;;;;19.03;12.67;;;9.80;99.90;;;;;;4180383;28;20171;-93
2021/05/20 01:08:31;;;;;;;18.27;13.03;;;9.80;99.90;;;;;;4147052;28;20191;-92
2021/05/20 01:10:32;;;;;;;19.63;12.83;;;9.70;99.90;;;;;;4180025;28;20256;-92
2021/05/20 01:12:33;;;;;;;21.23;12.37;;;9.70;99.90;;;;;;4163907;28;20183;-95
2021/05/20 01:14:42;;;;;;;19.63;12.13;;;9.70;99.90;;;;;;4147803;28;20538;-95
2021/05/20 01:16:47;;;;;;;18.90;12.70;;;9.70;99.90;;;;;;4147433;28;20176;-94
2021/05/20 01:18:47;;;;;;;24.93;12.23;;;9.70;99.90;;;;;;4147607;28;20184;-93
2021/05/20 01:20:48;;;;;;;17.10;12.20;;;9.70;99.90;;;;;;4180062;28;20195;-92
2021/05/20 01:22:50;;;;;;;19.37;11.43;;;9.70;99.90;;;;;;4147797;28;20255;-93
2021/05/20 01:24:51;;;;;;;18.07;12.10;;;9.70;99.90;;;;;;4180048;28;20180;-93
2021/05/20 01:26:53;;;;;;;16.47;11.57;;;9.70;99.90;;;;;;4147295;28;20661;-93
2021/05/20 01:28:54;;;;;;;20.00;11.77;;;9.60;99.90;;;;;;4180134;28;20232;-92
2021/05/20 01:30:55;;;;;;;17.73;12.03;;;9.60;99.90;;;;;;4146991;28;20243;-95
2021/05/20 01:32:55;;;;;;;18.50;12.00;;;9.50;99.90;;;;;;4163829;28;20172;-93
2021/05/20 01:34:59;;;;;;;16.43;11.70;;;9.50;99.90;;;;;;4147358;28;20474;-93
2021/05/20 01:37:04;;;;;;;23.70;13.03;;;9.50;99.90;;;;;;4180223;28;20171;-93
2021/05/20 01:39:07;;;;;;;18.97;13.10;;;9.50;99.90;;;;;;4147085;28;20180;-92
2021/05/20 01:41:11;;;;;;;21.33;13.30;;;9.50;99.90;;;;;;4147442;28;20200;-93
2021/05/20 01:43:12;;;;;;;22.77;13.97;;;9.60;99.90;;;;;;4146991;28;20264;-92
2021/05/20 01:45:13;;;;;;;22.30;13.30;;;9.50;99.90;;;;;;4180181;28;20172;-92
2021/05/20 01:47:14;;;;;;;19.37;14.03;;;9.50;99.90;;;;;;4147373;28;20208;-93
2021/05/20 01:49:14;;;;;;;24.63;14.13;;;9.60;99.90;;;;;;4163535;28;20179;-93
2021/05/20 01:51:17;;;;;;;20.00;14.67;;;9.50;99.90;;;;;;4147374;28;20212;-93
2021/05/20 01:53:18;;;;;;;20.03;14.27;;;9.50;99.90;;;;;;4179908;28;20586;-92
2021/05/20 01:55:19;;;;;;;24.10;15.10;;;9.60;99.90;;;;;;4147205;28;20609;-94
2021/05/20 01:57:20;;;;;;;28.37;15.37;;;9.60;99.90;;;;;;4179733;28;20178;-93
2021/05/20 01:59:21;;;;;;;25.87;15.77;;;9.60;99.90;;;;;;4146892;28;20183;-92
2021/05/20 02:01:22;;;;;;;25.87;14.47;;;9.60;99.90;;;;;;4147251;28;20216;-94
2021/05/20 02:03:24;;;;;;;24.93;15.97;;;9.60;99.90;;;;;;4146948;28;20550;-94
2021/05/20 02:05:25;;;;;;;26.90;17.27;;;9.70;99.90;;;;;;4146959;28;20168;-94
2021/05/20 02:07:28;;;;;;;30.00;17.07;;;9.60;99.90;;;;;;4147052;28;20184;-95
2021/05/20 02:09:29;;;;;;;27.87;17.17;;;9.60;99.90;;;;;;4163484;28;20191;-94
2021/05/20 02:11:29;;;;;;;30.30;18.57;;;9.50;99.90;;;;;;4179730;28;20247;-92
2021/05/20 02:13:31;;;;;;;26.77;18.10;;;9.50;99.90;;;;;;4163355;28;20172;-93
2021/05/20 02:15:33;;;;;;;31.20;19.50;;;9.50;99.90;;;;;;4147031;28;20199;-93
2021/05/20 02:17:36;;;;;;;27.87;19.20;;;9.40;99.90;;;;;;4147315;28;20224;-92
2021/05/20 02:19:37;;;;;;;28.17;18.40;;;9.50;99.90;;;;;;4180443;28;20176;-94
2021/05/20 02:21:40;;;;;;;29.70;18.10;;;9.50;99.90;;;;;;4149519;28;20559;-92
2021/05/20 02:23:41;;;;;;;32.60;18.23;;;9.50;99.90;;;;;;4149802;28;20180;-93
2021/05/20 02:25:42;;;;;;;24.53;16.50;;;9.50;99.90;;;;;;4182586;28;20668;-94
2021/05/20 02:27:43;;;;;;;26.37;17.17;;;9.50;99.90;;;;;;4149765;28;20180;-94
2021/05/20 02:29:43;;;;;;;26.57;17.80;;;9.40;99.90;;;;;;4182751;28;20172;-92
2021/05/20 02:31:44;;;;;;;22.80;15.37;;;9.30;99.90;;;;;;4149405;28;20217;-93
2021/05/20 02:33:45;;;;;;;24.17;16.13;;;9.30;99.90;;;;;;4149901;28;20588;-92
2021/05/20 02:35:46;;;;;;;25.83;16.30;;;9.30;99.90;;;;;;4166013;28;20625;-93
2021/05/20 02:37:47;;;;;;;24.57;15.90;;;9.30;99.90;;;;;;4149589;28;20511;-94
2021/05/20 02:39:48;;;;;;;24.63;16.13;;;9.30;99.90;;;;;;4149421;28;20183;-93
2021/05/20 02:41:49;;;;;;;23.20;15.10;;;9.10;99.90;;;;;;4165767;28;20220;-93
2021/05/20 02:43:50;;;;;;;24.30;15.73;;;9.00;99.90;;;;;;4149537;28;20181;-92
2021/05/20 02:45:50;;;;;;;25.60;15.77;;;9.00;99.90;;;;;;4182395;28;20175;-92
2021/05/20 02:47:52;;;;;;;25.47;15.77;;;9.00;99.90;;;;;;4149401;28;20173;-92
2021/05/20 02:49:53;;;;;;;26.10;16.40;;;9.00;99.90;;;;;;4149326;28;20208;-95
2021/05/20 02:51:53;;;;;;;25.10;16.07;;;9.00;99.90;;;;;;4182292;28;20230;-93
2021/05/20 02:53:54;;;;;;;25.00;16.07;;;9.00;99.90;;;;;;4149254;28;20184;-94
2021/05/20 02:55:55;;;;;;;26.20;15.83;;;9.00;99.90;;;;;;4181981;28;20175;-92
2021/05/20 02:57:59;;;;;;;26.30;15.97;;;9.00;99.90;;;;;;4149390;28;20173;-92
2021/05/20 03:00:00;;;;;;;27.80;16.20;;;8.80;99.90;;;;;;4149409;28;20180;-94
2021/05/20 03:02:04;;;;;;;27.00;15.93;;;8.80;99.90;;;;;;4182342;28;20196;-92
2021/05/20 03:04:05;;;;;;;24.63;16.57;;;8.80;99.90;;;;;;4165421;28;20184;-92
2021/05/20 03:06:06;;;;;;;27.93;16.20;;;8.80;99.90;;;;;;4149318;28;20181;-92
2021/05/20 03:08:10;;;;;;;23.37;15.47;;;8.80;99.90;;;;;;4149610;28;20176;-94
2021/05/20 03:10:11;;;;;;;22.93;15.70;;;8.90;99.90;;;;;;4149334;28;20173;-91
2021/05/20 03:12:12;;;;;;;28.40;17.07;;;8.80;99.90;;;;;;4165446;28;20196;-91
2021/05/20 03:14:13;;;;;;;24.43;15.97;;;8.90;99.90;;;;;;4149392;28;20162;-93
2021/05/20 03:16:13;;;;;;;22.97;16.60;;;8.90;99.90;;;;;;4182080;28;20181;-91
2021/05/20 03:18:14;;;;;;;25.20;16.37;;;9.00;99.90;;;;;;4148904;28;20177;-93
2021/05/20 03:20:17;;;;;;;22.37;15.83;;;9.10;99.90;;;;;;4149004;28;20640;-94
2021/05/20 03:22:18;;;;;;;24.73;17.07;;;9.00;99.90;;;;;;4148896;28;20203;-92
2021/05/20 03:24:19;;;;;;;26.90;16.70;;;9.00;99.90;;;;;;4181745;28;20191;-94
2021/05/20 03:26:19;;;;;;;21.60;15.40;;;9.00;99.90;;;;;;4148918;28;20187;-94
2021/05/20 03:28:20;;;;;;;26.00;16.37;;;8.90;99.90;;;;;;4181643;28;20180;-93
2021/05/20 03:30:22;;;;;;;24.33;16.83;;;8.90;99.90;;;;;;4148643;28;20567;-92
2021/05/20 03:32:22;;;;;;;25.37;16.50;;;8.80;99.90;;;;;;4181623;28;20361;-92
2021/05/20 03:34:23;;;;;;;26.03;16.77;;;8.70;99.90;;;;;;4148882;28;20172;-93
2021/05/20 03:36:24;;;;;;;33.27;16.93;;;8.70;99.90;;;;;;4181578;28;20623;-92
2021/05/20 03:38:25;;;;;;;24.40;16.37;;;8.70;99.90;;;;;;4148698;28;20259;-93
2021/05/20 03:40:26;;;;;;;28.33;17.47;;;8.80;99.90;;;;;;4181488;28;20258;-93
2021/05/20 03:42:26;;;;;;;29.17;17.50;;;8.70;99.90;;;;;;4165146;28;20180;-94
2021/05/20 03:44:28;;;;;;;24.97;16.67;;;8.80;99.90;;;;;;4148552;28;20236;-93
2021/05/20 03:46:29;;;;;;;27.43;16.77;;;8.70;99.90;;;;;;4181767;28;20179;-94
2021/05/20 03:48:30;;;;;;;25.07;16.30;;;8.70;99.90;;;;;;4148826;28;20165;-94
2021/05/20 03:50:31;;;;;;;27.60;16.83;;;8.70;99.90;;;;;;4148556;28;20232;-92
2021/05/20 03:52:32;;;;;;;25.93;17.17;;;8.70;99.90;;;;;;4181483;28;20182;-92
2021/05/20 03:54:33;;;;;;;29.47;17.20;;;8.70;99.90;;;;;;4148409;28;20633;-92
2021/05/20 03:56:37;;;;;;;31.90;17.73;;;8.80;99.90;;;;;;4164663;28;20183;-92
2021/05/20 03:58:37;;;;;;;25.30;16.77;;;8.90;99.90;;;;;;4180943;28;20179;-92
2021/05/20 04:00:38;;;;;;;25.90;17.37;;;8.90;99.90;;;;;;4148125;28;20173;-92
2021/05/20 04:02:39;;;;;;;27.93;16.70;;;8.80;99.90;;;;;;4148201;28;20299;-93
2021/05/20 04:04:39;;;;;;;33.57;18.13;;;8.70;99.90;;;;;;4181363;28;20664;-93
2021/05/20 04:06:40;;;;;;;29.93;16.67;;;8.60;99.90;;;;;;4164484;28;20227;-94
2021/05/20 04:08:41;;;;;;;24.80;17.33;;;8.60;99.90;;;;;;4148518;28;20208;-94
2021/05/20 04:10:42;;;;;;;27.23;16.10;;;8.60;99.90;;;;;;4181189;28;20230;-92
2021/05/20 04:12:43;;;;;;;30.70;17.70;;;8.70;99.90;;;;;;4181113;28;20735;-92
2021/05/20 04:14:44;;;;;;;28.30;15.70;;;8.80;99.90;;;;;;4148254;28;20172;-94
2021/05/20 04:16:44;;;;;;;28.77;16.70;;;8.80;99.90;;;;;;4182115;28;20172;-93
2021/05/20 04:18:52;;;;;;;28.67;16.67;;;8.90;99.90;;;;;;4151018;28;20191;-93
2021/05/20 04:20:54;;;;;;;30.87;18.60;;;8.90;99.90;;;;;;4164450;28;20231;-93
2021/05/20 04:22:58;;;;;;;29.87;18.63;;;8.90;99.90;;;;;;4164299;28;20263;-94
2021/05/20 04:25:02;;;;;;;32.27;17.73;;;9.00;99.90;;;;;;4164473;28;20167;-93
2021/05/20 04:27:05;;;;;;;29.83;17.20;;;9.10;99.90;;;;;;4164132;28;20173;-93
2021/05/20 04:29:08;;;;;;;28.67;17.53;;;9.10;99.90;;;;;;4148117;28;20228;-92
2021/05/20 04:31:11;;;;;;;24.07;17.00;;;9.10;99.90;;;;;;4181437;28;20209;-91
2021/05/20 04:33:27;;;;;;;26.03;17.00;;;9.10;99.90;;;;;;4181623;28;20623;-94
2021/05/20 04:35:53;;;;;;;26.67;17.03;;;9.10;99.90;;;;;;4144704;28;20200;-93
2021/05/20 04:38:32;;;;;;;26.50;17.10;;;9.10;99.90;;;;;;4150249;28;20176;-94
2021/05/20 04:40:53;;;;;;;30.03;17.53;;;9.20;99.90;;;;;;4167799;28;20286;-93
2021/05/20 04:42:55;;;;;;;26.03;16.53;;;9.30;99.90;;;;;;4164845;28;20179;-94
2021/05/20 04:44:55;;;;;;;27.43;16.20;;;9.40;99.90;;;;;;4148585;28;20191;-93
2021/05/20 04:46:56;;;;;;;28.30;16.57;;;9.20;99.90;;;;;;4181381;28;20172;-93
2021/05/20 04:48:57;;;;;;;24.57;16.07;;;9.10;99.90;;;;;;4148790;28;20629;-92
2021/05/20 04:51:00;;;;;;;25.40;15.70;;;9.10;99.90;;;;;;4164715;28;20527;-95
2021/05/20 04:53:22;;;;;;;25.53;15.63;;;9.10;99.90;;;;;;4148607;28;20653;-96
2021/05/20 04:55:38;;;;;;;23.47;16.73;;;9.10;99.90;;;;;;4164413;28;20176;-92
2021/05/20 04:57:59;;;;;;;23.33;15.07;;;9.10;99.90;;;;;;4148430;28;20173;-92
2021/05/20 05:00:00;;;;;;;29.20;16.17;;;9.10;99.90;;;;;;4165609;28;20182;-93
2021/05/20 05:02:01;;;;;;;29.53;14.90;;;9.10;99.90;;;;;;4149096;28;20224;-93
2021/05/20 05:04:05;;;;;;;25.70;14.90;;;9.10;99.90;;;;;;4147561;28;20515;-92
2021/05/20 05:06:37;;;;;;;20.47;14.17;;;9.10;99.90;;;;;;4164100;28;20188;-95
2021/05/20 05:08:55;;;;;;;21.97;14.13;;;9.10;99.90;;;;;;4147979;28;20184;-94
2021/05/20 05:11:21;;;;;;;24.47;14.50;;;9.10;99.90;;;;;;4147434;28;20310;-93
2021/05/20 05:13:33;;;;;;;26.90;14.87;;;9.10;99.90;;;;;;4180739;28;20187;-92
2021/05/20 05:15:58;;;;;;;22.37;14.37;;;9.10;99.90;;;;;;4165348;28;20167;-91
2021/05/20 05:17:59;;;;;;;23.40;15.40;;;9.20;99.90;;;;;;4164874;28;20180;-93
2021/05/20 05:20:06;;;;;;;24.10;15.00;;;9.10;99.90;;;;;;4148513;28;20634;-94
2021/05/20 05:22:07;;;;;;;25.70;16.23;;;9.20;99.90;;;;;;4147423;28;20192;-94
2021/05/20 05:24:09;;;;;;;23.20;15.33;;;9.20;99.90;;;;;;4147948;28;20192;-93
2021/05/20 05:26:21;;;;;;;21.67;15.00;;;9.40;99.90;;;;;;4147863;28;20161;-93
2021/05/20 05:28:28;;;;;;;24.87;15.23;;;9.40;99.90;;;;;;4180112;28;20310;-94
2021/05/20 05:30:28;;;;;;;21.90;14.77;;;9.40;99.90;;;;;;4164309;28;20202;-93
2021/05/20 05:32:39;;;;;;;23.50;15.87;;;9.50;99.90;;;;;;4148451;28;20275;-93
2021/05/20 05:34:40;;;;;;;20.93;14.73;;;9.40;99.90;;;;;;4182098;28;20697;-95
2021/05/20 05:36:47;;;;;;;25.10;15.07;;;9.40;99.90;;;;;;4148132;28;20188;-93
2021/05/20 05:39:15;;;;;;;27.20;15.60;;;9.40;99.90;;;;;;4148267;28;20184;-94
2021/05/20 05:41:16;;;;;;;25.20;16.27;;;9.50;99.90;;;;;;4164483;28;20196;-93
2021/05/20 05:43:19;;;;;;;20.43;15.40;;;9.50;99.90;;;;;;4180746;28;20258;-93
2021/05/20 05:45:20;;;;;;;23.03;15.20;;;9.50;99.90;;;;;;4165150;28;20631;-92
2021/05/20 05:47:21;;;;;;;27.97;18.20;;;9.60;99.90;;;;;;4148297;28;20258;-94
2021/05/20 05:49:27;;;;;;;29.17;18.97;;;9.60;99.90;;;;;;4149230;28;20383;-93
2021/05/20 05:51:41;;;;;;;25.67;14.93;;;9.60;99.90;;;;;;4168345;28;20212;-93
2021/05/20 05:53:42;;;;;;;22.03;15.23;;;9.70;99.90;;;;;;4148821;28;20172;-91
2021/05/20 05:55:46;;;;;;;21.23;14.40;;;9.80;99.90;;;;;;4184065;28;20189;-94
2021/05/20 05:57:52;;;;;;;25.10;18.37;;;9.90;99.90;;;;;;4152017;28;20169;-93
2021/05/20 05:59:53;;;;;;;21.33;15.07;;;10.00;99.90;;;;;;4168821;28;20180;-93
2021/05/20 06:01:54;;;;;;;24.77;14.37;;;10.00;99.90;;;;;;4151643;28;20209;-94
2021/05/20 06:04:01;;;;;;;26.23;14.73;;;10.10;99.90;;;;;;4152582;28;20522;-94
2021/05/20 06:06:02;;;;;;;21.73;14.83;;;10.10;99.90;;;;;;4152255;28;20224;-93
2021/05/20 06:08:32;;;;;;;24.47;15.03;;;10.10;99.90;;;;;;4185236;28;20180;-93
2021/05/20 06:10:32;;;;;;;25.63;14.20;;;10.10;99.90;;;;;;4153602;28;20263;-92
2021/05/20 06:12:47;;;;;;;21.10;14.10;;;10.30;99.90;;;;;;4170776;28;20196;-92
2021/05/20 06:14:47;;;;;;;24.63;15.30;;;10.30;99.90;;;;;;4169174;28;20168;-93
2021/05/20 06:16:51;;;;;;;26.60;14.87;;;10.60;99.90;;;;;;4183992;28;20178;-92
2021/05/20 06:18:51;;;;;;;27.20;14.50;;;10.60;99.90;;;;;;4151659;28;20165;-93
2021/05/20 06:21:02;;;;;;;24.37;13.77;;;10.70;99.90;;;;;;4153036;28;20747;-94
2021/05/20 06:23:03;;;;;;;34.83;19.67;;;10.70;99.90;;;;;;4151421;28;20607;-92
2021/05/20 06:25:05;;;;;;;77.40;40.33;;;10.80;99.90;;;;;;4184143;28;20195;-93
2021/05/20 06:27:12;;;;;;;27.67;16.33;;;10.90;99.90;;;;;;4170966;28;20180;-94
2021/05/20 06:29:16;;;;;;;22.08;13.05;;;11.00;99.90;;;;;;4152312;28;20613;-94
2021/05/20 06:31:17;;;;;;;19.48;12.63;;;11.20;99.90;;;;;;4153308;28;20212;-94
2021/05/20 06:33:38;;;;;;;16.83;12.10;;;11.30;99.90;;;;;;4183824;28;20191;-93
2021/05/20 06:35:38;;;;;;;22.42;12.52;;;11.30;99.90;;;;;;4184129;28;20172;-92
2021/05/20 06:38:16;;;;;;;19.40;13.27;;;11.40;99.90;;;;;;4152330;28;20568;-95
2021/05/20 06:40:24;;;;;;;17.52;12.52;;;11.60;99.90;;;;;;4186280;28;20198;-94
2021/05/20 06:42:25;;;;;;;19.13;11.93;;;11.70;99.90;;;;;;4152874;28;20201;-93
2021/05/20 06:44:30;;;;;;;18.75;12.20;;;11.70;99.90;;;;;;4151971;28;20173;-94
2021/05/20 06:46:34;;;;;;;21.25;12.63;;;11.80;99.90;;;;;;4152373;28;20379;-93
2021/05/20 06:48:35;;;;;;;22.35;12.13;;;11.80;99.90;;;;;;4169964;28;20581;-93
2021/05/20 06:50:36;;;;;;;20.75;12.13;;;11.90;99.90;;;;;;4166804;28;20679;-94
2021/05/20 06:52:49;;;;;;;20.70;13.25;;;12.00;99.90;;;;;;4149573;28;20177;-95
2021/05/20 06:55:01;;;;;;;18.25;11.32;;;12.10;99.90;;;;;;4154473;28;20204;-94
2021/05/20 06:57:21;;;;;;;19.17;11.30;;;12.40;99.90;;;;;;4169669;28;20346;-93
2021/05/20 07:01:47;;;;;;;19.73;10.48;;;12.60;99.90;;;;;;4169147;28;20251;-93
2021/05/20 07:03:48;;;;;;;16.05;10.23;;;12.80;99.90;;;;;;4167265;28;20219;-93
2021/05/20 07:05:52;;;;;;;20.33;10.20;;;12.80;99.90;;;;;;4150730;28;20203;-93
2021/05/20 07:07:53;;;;;;;18.02;9.77;;;12.70;99.90;;;;;;4168581;28;20179;-94
2021/05/20 07:09:55;;;;;;;16.05;8.80;;;13.30;99.90;;;;;;4152552;28;20165;-94
2021/05/20 07:11:56;;;;;;;16.80;8.27;;;14.20;99.90;;;;;;4185788;28;20219;-94
2021/05/20 07:15:04;;;;;;;;;;;;;;;;;;;;;
2021/05/20 07:17:41;;;;;;;13.90;7.22;;;18.40;99.90;;;;;;4203682;28;20183;-94
2021/05/20 07:20:14;;;;;;;15.02;7.40;;;20.00;99.90;;;;;;4152172;28;20189;-94
2021/05/20 07:22:47;;;;;;;12.20;7.10;;;20.30;99.90;;;;;;4168570;28;20557;-96
2021/05/20 07:24:51;;;;;;;12.88;7.90;;;20.50;99.90;;;;;;4166529;23;20236;-78
2021/05/20 07:26:53;;;;;;;15.73;8.93;;;20.60;99.90;;;;;;4165043;28;20265;-79
2021/05/20 07:28:54;;;;;;;14.10;10.10;;;20.40;99.90;;;;;;4164992;28;20611;-80
2021/05/20 07:30:55;;;;;;;15.38;11.00;;;20.50;99.90;;;;;;4164896;28;20196;-80
2021/05/20 07:32:55;;;;;;;17.25;12.63;;;20.10;99.90;;;;;;4164833;28;20646;-79
2021/05/20 07:34:56;;;;;;;23.73;16.02;;;19.10;99.90;;;;;;4164975;28;20171;-79
2021/05/20 07:36:57;;;;;;;44.63;18.13;;;18.30;99.90;;;;;;4148146;28;20220;-80
2021/05/20 07:38:58;;;;;;;31.48;19.00;;;18.00;99.90;;;;;;4164462;28;20670;-78
2021/05/20 07:40:58;;;;;;;34.17;21.00;;;18.60;99.90;;;;;;4165562;28;20172;-78
2021/05/20 07:42:59;;;;;;;36.13;23.48;;;18.90;99.90;;;;;;4181105;28;20720;-80
2021/05/20 07:45:00;;;;;;;34.20;22.98;;;18.50;99.90;;;;;;4164565;28;20172;-80
2021/05/20 07:47:01;;;;;;;36.75;24.95;;;18.10;99.90;;;;;;4164479;28;20570;-81
2021/05/20 07:49:02;;;;;;;40.58;26.30;;;18.60;99.90;;;;;;4164553;28;20183;-80
2021/05/20 07:51:06;;;;;;;39.22;27.13;;;18.60;99.90;;;;;;4148046;28;20228;-79
2021/05/20 07:53:06;;;;;;;40.58;26.80;;;18.10;99.90;;;;;;4164312;28;20254;-79
2021/05/20 07:55:08;;;;;;;42.13;27.75;;;17.60;99.90;;;;;;4164296;28;20654;-79
2021/05/20 07:57:09;;;;;;;47.08;30.08;;;17.00;99.90;;;;;;4164222;28;20178;-78
2021/05/20 07:59:09;;;;;;;44.75;28.73;;;16.00;99.90;;;;;;4164379;28;20778;-79
2021/05/20 08:01:12;;;;;;;43.22;29.42;;;15.50;99.90;;;;;;4164356;28;20179;-78
2021/05/20 08:05:39;;;;;;;40.58;28.10;;;16.00;99.90;;;;;;4164262;28;20164;-79
2021/05/20 08:12:02;;;;;;;44.53;29.50;;;17.90;99.90;;;;;;4164159;28;20219;-79
2021/05/20 08:14:03;;;;;;;43.75;25.23;;;18.50;99.90;;;;;;4164140;28;20165;-79
2021/05/20 08:16:04;;;;;;;40.53;24.90;;;18.10;99.90;;;;;;4164159;28;20280;-79
2021/05/20 08:18:05;;;;;;;36.17;22.00;;;18.50;99.90;;;;;;4146752;28;20169;-82
2021/05/20 08:20:07;;;;;;;37.58;22.17;;;18.70;99.90;;;;;;4164076;28;20179;-79
2021/05/20 08:22:07;;;;;;;30.08;20.33;;;19.70;99.90;;;;;;4147708;28;20180;-79
2021/05/20 08:24:08;;;;;;;28.02;17.10;;;20.10;99.90;;;;;;4180420;28;20496;-80
2021/05/20 08:26:12;;;;;;;28.50;15.70;;;19.70;99.90;;;;;;4165194;28;20239;-79
2021/05/20 08:28:13;;;;;;;22.58;15.27;;;19.40;99.90;;;;;;4180501;28;20266;-80
2021/05/20 08:30:15;;;;;;;26.33;14.75;;;20.00;99.90;;;;;;4147791;28;20623;-78
2021/05/20 08:32:16;;;;;;;20.33;13.30;;;20.70;99.90;;;;;;4163837;28;20638;-79
2021/05/20 08:34:17;;;;;;;21.13;14.27;;;20.90;99.90;;;;;;4163961;28;20237;-83
2021/05/20 08:36:17;;;;;;;17.45;11.30;;;20.90;99.90;;;;;;4163749;28;20164;-80
2021/05/20 08:38:18;;;;;;;14.65;10.25;;;20.60;99.90;;;;;;4163774;28;20207;-78
2021/05/20 08:40:19;;;;;;;15.48;10.25;;;19.70;99.90;;;;;;4147505;28;20612;-79
2021/05/20 08:42:20;;;;;;;14.18;10.13;;;19.10;99.90;;;;;;4147461;28;20248;-80
2021/05/20 08:44:25;;;;;;;15.20;10.57;;;18.70;99.90;;;;;;4163790;28;20242;-78
2021/05/20 08:46:26;;;;;;;11.88;9.52;;;18.50;99.90;;;;;;4163481;28;20172;-79
2021/05/20 08:48:27;;;;;;;14.32;10.20;;;18.60;99.90;;;;;;4147244;28;20271;-78
2021/05/20 08:50:30;;;;;;;14.18;9.68;;;18.70;99.90;;;;;;4163569;28;20164;-78
2021/05/20 08:52:32;;;;;;;15.48;9.88;;;19.20;99.90;;;;;;4163692;28;20172;-79
2021/05/20 08:54:33;;;;;;;12.93;10.25;;;19.10;99.90;;;;;;4163679;28;20248;-79
2021/05/20 08:56:34;;;;;;;16.90;10.50;;;19.20;99.90;;;;;;4163695;28;20175;-79
2021/05/20 08:58:34;;;;;;;17.02;11.52;;;18.80;99.90;;;;;;4163733;28;20631;-79
2021/05/20 09:00:35;;;;;;;13.43;9.98;;;18.90;99.90;;;;;;4163660;28;20562;-79
2021/05/20 09:02:36;;;;;;;14.90;11.13;;;19.10;99.90;;;;;;4147370;28;20177;-78
2021/05/20 09:04:37;;;;;;;12.38;9.45;;;19.60;99.90;;;;;;4163422;28;20218;-78
2021/05/20 09:06:42;;;;;;;14.65;9.35;;;20.20;99.90;;;;;;4163603;28;20168;-78
2021/05/20 09:08:46;;;;;;;13.52;9.25;;;20.20;99.90;;;;;;4163532;28;20242;-78
2021/05/20 09:10:48;;;;;;;12.95;9.30;;;20.20;99.90;;;;;;4163392;28;20196;-78
2021/05/20 09:12:51;;;;;;;13.07;9.18;;;20.50;99.90;;;;;;4163707;28;20172;-78
2021/05/20 09:14:52;;;;;;;13.90;9.00;;;19.90;99.90;;;;;;4164565;28;20423;-79
2021/05/20 09:17:07;;;;;;;11.70;8.27;;;19.40;99.90;;;;;;4179741;28;20171;-77
2021/05/20 09:19:21;;;;;;;13.38;9.10;;;19.10;99.90;;;;;;4163306;28;20538;-80
2021/05/20 09:21:22;;;;;;;14.10;9.63;;;18.60;99.90;;;;;;4163374;28;20333;-78
2021/05/20 09:23:25;;;;;;;15.10;10.20;;;18.70;99.90;;;;;;4163542;28;20171;-78
2021/05/20 09:25:30;;;;;;;12.98;10.20;;;18.90;99.90;;;;;;4164603;28;20543;-79
2021/05/20 09:27:45;;;;;;;19.50;11.55;;;18.40;99.90;;;;;;4180015;28;20167;-77
2021/05/20 09:30:08;;;;;;;15.77;11.32;;;17.80;99.90;;;;;;4182316;28;20167;-77
2021/05/20 09:32:10;;;;;;;13.25;11.02;;;18.10;99.90;;;;;;4166507;28;20227;-78
2021/05/20 09:34:13;;;;;;;20.13;10.93;;;18.10;99.90;;;;;;4150493;28;20173;-78
2021/05/20 09:36:20;;;;;;;15.77;11.25;;;17.50;99.90;;;;;;4166590;28;20172;-79
2021/05/20 09:38:23;;;;;;;15.18;11.73;;;17.20;99.90;;;;;;4183064;28;20199;-78
2021/05/20 09:40:27;;;;;;;14.52;11.13;;;17.00;99.90;;;;;;4167954;28;20253;-78
2021/05/20 09:42:31;;;;;;;25.58;12.55;;;17.20;99.90;;;;;;4166330;28;20174;-77
2021/05/20 09:44:32;;;;;;;14.93;11.40;;;17.00;99.90;;;;;;4166538;28;20214;-79
2021/05/20 09:46:43;;;;;;;14.93;11.57;;;16.90;99.90;;;;;;4166458;28;20161;-78
2021/05/20 09:48:48;;;;;;;18.40;12.45;;;16.70;99.90;;;;;;4166350;28;20167;-78
2021/05/20 09:50:51;;;;;;;15.52;12.98;;;16.40;99.90;;;;;;4182886;28;20202;-78
2021/05/20 09:53:00;;;;;;;15.93;12.82;;;16.30;99.90;;;;;;4166548;28;20184;-78
2021/05/20 09:55:03;;;;;;;17.48;13.50;;;16.30;99.90;;;;;;4167705;28;20156;-77
2021/05/20 09:57:27;;;;;;;15.82;11.88;;;16.70;99.90;;;;;;4166387;28;20632;-78
2021/05/20 09:59:31;;;;;;;13.63;11.20;;;17.20;99.90;;;;;;4166269;28;20651;-77
2021/05/20 10:01:33;;;;;;;13.05;11.13;;;17.00;99.90;;;;;;4166398;28;20614;-77
2021/05/20 10:03:35;;;;;;;12.60;10.68;;;16.90;99.90;;;;;;4166278;28;20169;-78
2021/05/20 10:05:43;;;;;;;16.35;9.98;;;16.70;99.90;;;;;;4167183;28;20246;-77
2021/05/20 10:07:44;;;;;;;10.35;8.65;;;16.90;99.90;;;;;;4166222;28;20172;-79
2021/05/20 10:09:45;;;;;;;12.85;8.48;;;17.20;99.90;;;;;;4166182;28;20184;-79
2021/05/20 10:11:46;;;;;;;8.90;7.70;;;17.30;99.90;;;;;;4165830;28;20203;-78
2021/05/20 10:13:46;;;;;;;10.65;7.80;;;17.40;99.90;;;;;;4166207;28;20218;-77
2021/05/20 10:15:47;;;;;;;9.10;7.72;;;17.40;99.90;;;;;;4167336;28;20157;-79
2021/05/20 10:17:49;;;;;;;8.57;7.13;;;17.10;99.90;;;;;;4166065;28;20191;-79
2021/05/20 10:19:50;;;;;;;10.75;7.50;;;17.10;99.90;;;;;;4166295;28;20726;-77
2021/05/20 10:21:52;;;;;;;9.73;7.13;;;17.00;99.90;;;;;;4165684;28;20172;-79
2021/05/20 10:23:54;;;;;;;9.18;6.82;;;17.00;99.90;;;;;;4165847;28;20173;-79
2021/05/20 10:25:57;;;;;;;8.02;6.85;;;17.00;99.90;;;;;;4182119;28;20175;-79
2021/05/20 10:27:59;;;;;;;9.55;6.97;;;16.90;99.90;;;;;;4165995;28;20621;-78
2021/05/20 10:30:00;;;;;;;7.90;6.80;;;16.90;99.90;;;;;;4166900;28;20164;-78
2021/05/20 10:32:01;;;;;;;11.88;6.70;;;17.00;99.90;;;;;;4165815;28;20191;-78
2021/05/20 10:34:05;;;;;;;8.50;6.10;;;17.00;99.90;;;;;;4167135;28;20165;-78
2021/05/20 10:36:06;;;;;;;7.38;5.80;;;17.50;99.90;;;;;;4149284;28;20177;-77
2021/05/20 10:38:08;;;;;;;7.63;5.88;;;17.80;99.90;;;;;;4149311;28;20181;-78
2021/05/20 10:40:26;;;;;;;9.98;6.03;;;17.70;99.90;;;;;;4148154;28;20224;-79
2021/05/20 10:42:40;;;;;;;7.28;5.50;;;17.80;99.90;;;;;;4149326;28;20177;-78
2021/05/20 10:44:40;;;;;;;7.75;5.40;;;17.50;99.90;;;;;;4165767;28;20222;-79
2021/05/20 10:47:02;;;;;;;6.80;4.95;;;17.60;99.90;;;;;;4165703;28;20172;-79